Time;durP1;ratioP1;P1;durP2;ratioP2;P2;SDS_P1;SDS_P2;PMS_P1;PMS_P2;Temp;Humidity;BMP_temperature;BMP_pressure;BME280_temperature;BME280_humidity;BME280_pressure;Samples;Min_cycle;Max_cycle;Signal;HPM_P1;HPM_P2
2022/09/17 00:01:28;;;;;;;7.53;2.20;;;14.10;99.90;;;;;;5031273;28;20442;-49
2022/09/17 00:03:56;;;;;;;4.40;2.33;;;13.90;99.90;;;;;;5031316;28;20884;-50
2022/09/17 00:06:24;;;;;;;6.23;2.07;;;13.90;99.90;;;;;;5031371;28;20456;-50
2022/09/17 00:08:52;;;;;;;9.00;3.03;;;13.80;99.90;;;;;;5031196;28;20431;-51
2022/09/17 00:11:21;;;;;;;6.43;2.40;;;13.90;99.90;;;;;;5031567;28;20496;-49
2022/09/17 00:13:49;;;;;;;8.40;3.07;;;13.90;99.90;;;;;;5030044;28;20450;-50
2022/09/17 00:16:24;;;;;;;6.90;3.17;;;14.10;99.90;;;;;;5031229;28;20468;-50
2022/09/17 00:18:51;;;;;;;8.00;3.03;;;14.10;99.90;;;;;;5030942;28;21016;-50
2022/09/17 00:21:18;;;;;;;8.57;3.40;;;14.20;99.90;;;;;;5031572;28;20787;-49
2022/09/17 00:23:45;;;;;;;6.50;2.57;;;13.90;99.90;;;;;;5031198;28;20449;-50
2022/09/17 00:26:13;;;;;;;5.40;2.67;;;14.10;99.90;;;;;;5031195;28;20454;-49
2022/09/17 00:28:40;;;;;;;6.37;3.03;;;14.10;99.90;;;;;;5030899;28;20464;-49
2022/09/17 00:31:08;;;;;;;8.70;3.57;;;13.80;99.90;;;;;;5031065;28;20432;-49
2022/09/17 00:33:36;;;;;;;7.80;3.13;;;14.10;99.90;;;;;;5029586;28;20483;-51
2022/09/17 00:36:04;;;;;;;7.60;2.87;;;13.50;99.90;;;;;;5031091;28;20469;-50
2022/09/17 00:38:31;;;;;;;6.80;3.80;;;13.90;99.90;;;;;;5030661;28;20819;-50
2022/09/17 00:40:57;;;;;;;9.20;4.50;;;14.00;99.90;;;;;;5031354;28;20946;-49
2022/09/17 00:43:34;;;;;;;7.30;4.00;;;13.90;99.90;;;;;;5031167;28;20435;-49
2022/09/17 00:46:01;;;;;;;7.70;4.00;;;13.90;99.90;;;;;;5031327;28;20747;-49
2022/09/17 00:48:27;;;;;;;6.03;4.13;;;14.10;99.90;;;;;;5031644;28;20441;-49
2022/09/17 00:50:57;;;;;;;4.40;2.93;;;14.00;99.90;;;;;;5035079;28;20434;-49
2022/09/17 00:53:24;;;;;;;7.73;4.40;;;13.90;99.90;;;;;;5035152;28;20532;-49
2022/09/17 00:55:57;;;;;;;10.33;3.63;;;13.80;99.90;;;;;;5034757;28;20828;-49
2022/09/17 00:58:26;;;;;;;7.17;3.77;;;14.10;99.90;;;;;;5034693;28;20433;-50
2022/09/17 01:00:52;;;;;;;9.03;3.57;;;13.80;99.90;;;;;;5034868;28;20435;-48
2022/09/17 01:03:19;;;;;;;12.43;4.13;;;13.90;99.90;;;;;;5034660;28;20435;-50
2022/09/17 01:05:49;;;;;;;8.97;4.40;;;14.00;99.90;;;;;;5034647;28;20475;-49
2022/09/17 01:08:27;;;;;;;11.23;4.07;;;14.00;99.90;;;;;;5034731;28;20438;-50
2022/09/17 01:11:12;;;;;;;8.43;3.47;;;14.00;99.90;;;;;;5034785;28;20430;-51
2022/09/17 01:13:48;;;;;;;6.83;3.87;;;14.30;99.90;;;;;;5034400;28;20439;-51
2022/09/17 01:16:20;;;;;;;9.10;4.00;;;14.20;99.90;;;;;;5034634;28;20460;-49
2022/09/17 01:19:00;;;;;;;7.40;4.80;;;14.00;99.90;;;;;;5034146;28;20502;-50
2022/09/17 01:21:39;;;;;;;6.90;4.83;;;13.90;99.90;;;;;;5034504;28;20789;-49
2022/09/17 01:24:47;;;;;;;8.63;4.67;;;14.00;99.90;;;;;;5034522;28;20436;-50
2022/09/17 01:27:38;;;;;;;10.03;4.60;;;14.10;99.90;;;;;;5034383;28;20447;-50
2022/09/17 01:30:27;;;;;;;7.53;4.73;;;14.00;99.90;;;;;;5034011;28;20429;-50
2022/09/17 01:33:00;;;;;;;7.53;5.53;;;13.80;99.90;;;;;;5034154;28;20493;-51
2022/09/17 01:35:40;;;;;;;8.77;5.30;;;14.00;99.90;;;;;;5034001;28;20469;-49
2022/09/17 01:38:13;;;;;;;9.60;5.83;;;13.90;99.90;;;;;;5034090;28;20463;-51
2022/09/17 01:40:47;;;;;;;8.77;4.97;;;13.90;99.90;;;;;;5033790;28;20485;-49
2022/09/17 01:43:22;;;;;;;11.37;4.93;;;13.90;99.90;;;;;;5034210;28;20745;-52
2022/09/17 01:45:52;;;;;;;13.77;5.33;;;13.90;99.90;;;;;;5033827;28;21013;-50
2022/09/17 01:48:20;;;;;;;8.10;5.03;;;14.00;99.90;;;;;;5033997;28;20792;-50
2022/09/17 01:50:52;;;;;;;14.73;5.70;;;14.10;99.90;;;;;;5033779;28;20534;-49
2022/09/17 01:53:23;;;;;;;6.70;4.43;;;14.40;99.90;;;;;;5034347;28;20439;-49
2022/09/17 01:55:52;;;;;;;7.17;3.77;;;13.80;99.90;;;;;;5034222;28;20470;-49
2022/09/17 01:58:22;;;;;;;12.10;4.70;;;14.00;99.90;;;;;;5032705;28;20438;-50
2022/09/17 02:00:55;;;;;;;11.03;5.33;;;14.00;99.90;;;;;;5032717;28;20490;-50
2022/09/17 02:03:29;;;;;;;9.63;5.20;;;13.60;99.90;;;;;;5033883;28;20774;-49
2022/09/17 02:06:00;;;;;;;11.73;5.80;;;13.90;99.90;;;;;;5033735;28;20604;-49
2022/09/17 02:08:33;;;;;;;13.70;7.03;;;13.90;99.90;;;;;;5033596;28;20448;-51
2022/09/17 02:11:06;;;;;;;17.70;8.37;;;14.00;99.90;;;;;;5033417;28;20534;-48
2022/09/17 02:13:38;;;;;;;12.10;8.10;;;14.10;99.90;;;;;;5033617;28;20436;-50
2022/09/17 02:16:13;;;;;;;12.97;9.47;;;14.10;99.90;;;;;;5033383;28;20454;-49
2022/09/17 02:18:45;;;;;;;16.53;8.80;;;14.00;99.90;;;;;;5032872;28;20441;-49
2022/09/17 02:21:16;;;;;;;15.77;8.43;;;14.00;99.90;;;;;;5033435;28;20891;-49
2022/09/17 02:23:52;;;;;;;9.63;6.13;;;14.00;99.90;;;;;;5033263;28;20437;-51
2022/09/17 02:26:20;;;;;;;13.50;6.03;;;14.00;99.90;;;;;;5031990;28;20580;-49
2022/09/17 02:28:51;;;;;;;11.47;5.77;;;13.90;99.90;;;;;;5032885;28;20884;-50
2022/09/17 02:31:19;;;;;;;13.87;5.33;;;13.90;99.90;;;;;;5033176;28;20447;-50
2022/09/17 02:33:50;;;;;;;15.20;4.00;;;14.60;99.90;;;;;;5033198;28;20438;-50
2022/09/17 02:36:17;;;;;;;16.33;4.73;;;14.10;99.90;;;;;;5032995;28;20465;-49
2022/09/17 02:38:45;;;;;;;10.43;4.20;;;14.10;99.90;;;;;;5032709;28;20474;-51
2022/09/17 02:41:16;;;;;;;8.80;3.63;;;13.90;99.90;;;;;;5032929;28;20498;-49
2022/09/17 02:43:51;;;;;;;11.57;3.60;;;14.10;99.90;;;;;;5033251;28;20435;-49
2022/09/17 02:46:34;;;;;;;11.20;4.10;;;14.10;99.90;;;;;;5033102;28;20865;-51
2022/09/17 02:49:17;;;;;;;10.33;4.37;;;14.10;99.90;;;;;;5032657;28;20541;-49
2022/09/17 02:51:51;;;;;;;10.40;4.13;;;13.70;99.90;;;;;;5032779;28;20445;-49
2022/09/17 02:54:26;;;;;;;6.33;3.60;;;14.00;99.90;;;;;;5031383;28;20457;-52
2022/09/17 02:57:02;;;;;;;12.23;3.87;;;14.10;99.90;;;;;;5032698;28;20426;-50
2022/09/17 02:59:40;;;;;;;12.23;3.63;;;14.40;99.90;;;;;;5032178;28;20472;-50
2022/09/17 03:02:15;;;;;;;11.90;3.97;;;14.30;99.90;;;;;;5032777;28;20440;-50
2022/09/17 03:04:45;;;;;;;15.73;4.17;;;13.90;99.90;;;;;;5031024;28;20498;-52
2022/09/17 03:07:13;;;;;;;12.50;3.80;;;14.40;99.90;;;;;;5032377;28;20441;-51
2022/09/17 03:09:42;;;;;;;7.80;4.03;;;14.10;99.90;;;;;;5032133;28;20434;-51
2022/09/17 03:12:09;;;;;;;12.03;4.77;;;14.10;99.90;;;;;;5031464;28;20814;-51
2022/09/17 03:14:36;;;;;;;7.90;4.97;;;13.50;99.90;;;;;;5032310;28;20454;-49
2022/09/17 03:17:03;;;;;;;10.80;5.17;;;14.50;99.90;;;;;;5032228;28;20445;-51
2022/09/17 03:19:31;;;;;;;12.40;4.20;;;14.10;99.90;;;;;;5031424;28;20478;-49
2022/09/17 03:21:58;;;;;;;16.43;5.13;;;13.80;99.90;;;;;;5032057;28;20408;-49
2022/09/17 03:24:24;;;;;;;15.43;5.57;;;14.30;99.90;;;;;;5032001;28;21075;-50
2022/09/17 03:26:51;;;;;;;12.80;4.90;;;14.30;99.90;;;;;;5032089;28;20434;-51
2022/09/17 03:29:18;;;;;;;15.30;5.30;;;14.10;99.90;;;;;;5031487;28;20444;-49
2022/09/17 03:31:44;;;;;;;10.57;5.37;;;14.20;99.90;;;;;;5031885;28;20443;-49
2022/09/17 03:34:11;;;;;;;11.77;5.17;;;13.50;99.90;;;;;;5031798;28;20435;-50
2022/09/17 03:36:39;;;;;;;9.70;4.83;;;13.90;99.90;;;;;;5031734;28;20477;-49
2022/09/17 03:39:06;;;;;;;7.77;3.97;;;14.30;99.90;;;;;;5031678;28;20438;-50
2022/09/17 03:41:32;;;;;;;7.63;3.93;;;14.40;99.90;;;;;;5031701;28;20478;-49
2022/09/17 03:43:59;;;;;;;6.97;3.60;;;13.80;99.90;;;;;;5031716;28;20444;-49
2022/09/17 03:46:25;;;;;;;10.33;4.23;;;14.20;99.90;;;;;;5030415;28;20462;-50
2022/09/17 03:48:52;;;;;;;12.20;4.60;;;14.10;99.90;;;;;;5031133;28;20809;-50
2022/09/17 03:51:18;;;;;;;8.37;3.67;;;14.40;99.90;;;;;;5031768;28;20433;-50
2022/09/17 03:53:46;;;;;;;15.30;4.30;;;14.20;99.90;;;;;;5031979;28;20496;-50
2022/09/17 03:56:13;;;;;;;8.40;3.40;;;13.60;99.90;;;;;;5030273;28;20474;-50
2022/09/17 03:58:40;;;;;;;10.33;4.90;;;14.10;99.90;;;;;;5031331;28;20437;-50
2022/09/17 04:01:06;;;;;;;10.13;5.70;;;14.40;99.90;;;;;;5031543;28;20484;-49
2022/09/17 04:03:34;;;;;;;13.30;6.00;;;14.30;99.90;;;;;;5031431;28;20431;-49
2022/09/17 04:06:00;;;;;;;13.90;5.17;;;14.20;99.90;;;;;;5031885;28;20539;-49
2022/09/17 04:08:27;;;;;;;7.77;4.50;;;14.30;99.90;;;;;;5031253;28;20437;-49
2022/09/17 04:10:55;;;;;;;12.27;4.50;;;14.30;99.90;;;;;;5031434;28;20478;-49
2022/09/17 04:13:21;;;;;;;14.30;4.20;;;14.20;99.90;;;;;;5031573;28;21038;-49
2022/09/17 04:15:48;;;;;;;10.33;4.97;;;14.20;99.90;;;;;;5031315;28;20474;-50
2022/09/17 04:18:15;;;;;;;9.50;5.07;;;14.10;99.90;;;;;;5031196;28;20429;-49
2022/09/17 04:20:42;;;;;;;10.03;4.23;;;14.10;99.90;;;;;;5031014;28;20486;-50
2022/09/17 04:23:10;;;;;;;11.40;4.67;;;14.00;99.90;;;;;;5030918;28;20453;-51
2022/09/17 04:25:37;;;;;;;14.43;4.53;;;14.00;99.90;;;;;;5035858;28;20459;-50
2022/09/17 04:28:05;;;;;;;13.17;5.83;;;14.00;99.90;;;;;;5035794;28;20437;-50
2022/09/17 04:30:32;;;;;;;8.60;4.63;;;14.10;99.90;;;;;;5035308;28;20433;-49
2022/09/17 04:32:59;;;;;;;14.17;4.50;;;14.40;99.90;;;;;;5035443;28;20443;-50
2022/09/17 04:35:25;;;;;;;13.80;4.80;;;14.10;99.90;;;;;;5035938;28;20851;-49
2022/09/17 04:37:53;;;;;;;11.30;5.13;;;14.40;99.90;;;;;;5035611;28;20773;-50
2022/09/17 04:40:19;;;;;;;12.40;4.93;;;14.10;99.90;;;;;;5034796;28;20505;-51
2022/09/17 04:42:46;;;;;;;16.70;5.60;;;14.10;99.90;;;;;;5035303;28;20442;-49
2022/09/17 04:45:14;;;;;;;14.50;6.00;;;14.30;99.90;;;;;;5034934;28;20497;-50
2022/09/17 04:47:41;;;;;;;12.73;6.30;;;14.30;99.90;;;;;;5035054;28;20492;-49
2022/09/17 04:50:08;;;;;;;15.97;6.27;;;14.70;99.90;;;;;;5034888;28;20945;-49
2022/09/17 04:52:35;;;;;;;13.33;5.93;;;14.20;99.90;;;;;;5035046;28;20504;-50
2022/09/17 04:55:01;;;;;;;10.73;6.10;;;14.20;99.90;;;;;;5034972;28;20478;-50
2022/09/17 04:57:28;;;;;;;11.37;6.10;;;14.10;99.90;;;;;;5035215;28;20782;-49
2022/09/17 04:59:54;;;;;;;12.80;5.60;;;13.90;99.90;;;;;;5034659;28;20481;-49
2022/09/17 05:02:22;;;;;;;17.77;5.27;;;13.90;99.90;;;;;;5034969;28;20439;-51
2022/09/17 05:04:49;;;;;;;12.53;4.70;;;14.20;99.90;;;;;;5034915;28;20469;-49
2022/09/17 05:07:16;;;;;;;12.63;5.33;;;14.30;99.90;;;;;;5034883;28;20430;-49
2022/09/17 05:09:42;;;;;;;10.27;4.80;;;14.00;99.90;;;;;;5034500;28;20442;-49
2022/09/17 05:12:09;;;;;;;13.57;4.60;;;14.40;99.90;;;;;;5034672;28;20982;-49
2022/09/17 05:14:35;;;;;;;9.43;4.10;;;13.90;99.90;;;;;;5034378;28;20511;-50
2022/09/17 05:17:02;;;;;;;8.50;3.80;;;14.30;99.90;;;;;;5034364;28;20437;-50
2022/09/17 05:19:30;;;;;;;10.57;3.93;;;14.50;99.90;;;;;;5034217;28;20923;-50
2022/09/17 05:21:57;;;;;;;11.57;4.33;;;13.80;99.90;;;;;;5034387;28;20560;-50
2022/09/17 05:24:23;;;;;;;15.30;5.30;;;14.20;99.90;;;;;;5034322;28;20439;-50
2022/09/17 05:26:50;;;;;;;9.33;4.50;;;14.90;99.90;;;;;;5034152;28;20580;-51
2022/09/17 05:29:17;;;;;;;11.23;4.87;;;14.70;99.90;;;;;;5034194;28;20426;-49
2022/09/17 05:31:43;;;;;;;12.23;5.50;;;14.30;99.90;;;;;;5034263;28;20432;-50
2022/09/17 05:34:10;;;;;;;11.20;4.63;;;14.50;99.90;;;;;;5033881;28;20929;-51
2022/09/17 05:36:38;;;;;;;13.07;4.80;;;14.40;99.90;;;;;;5033166;28;20529;-50
2022/09/17 05:39:04;;;;;;;8.73;3.80;;;14.40;99.90;;;;;;5033777;28;20440;-50
2022/09/17 05:41:31;;;;;;;14.43;4.73;;;14.30;99.90;;;;;;5033972;28;20482;-50
2022/09/17 05:43:58;;;;;;;8.83;4.37;;;14.40;99.90;;;;;;5033885;28;20449;-50
2022/09/17 05:46:24;;;;;;;10.03;4.47;;;14.50;99.90;;;;;;5033988;28;20471;-50
2022/09/17 05:48:51;;;;;;;10.80;4.33;;;14.30;99.90;;;;;;5033862;28;20434;-50
2022/09/17 05:51:18;;;;;;;12.20;5.60;;;14.10;99.90;;;;;;5033805;28;20915;-50
2022/09/17 05:53:46;;;;;;;11.20;5.40;;;14.50;99.90;;;;;;5032453;28;20484;-49
2022/09/17 05:56:12;;;;;;;9.20;5.20;;;14.60;99.90;;;;;;5033660;28;20454;-50
2022/09/17 05:58:39;;;;;;;9.27;4.70;;;14.70;99.90;;;;;;5033312;28;20445;-48
2022/09/17 06:01:06;;;;;;;11.73;4.93;;;14.80;99.90;;;;;;5033860;28;20481;-49
2022/09/17 06:03:32;;;;;;;9.27;4.57;;;14.60;99.90;;;;;;5033830;28;20967;-50
2022/09/17 06:06:00;;;;;;;17.03;5.70;;;14.70;99.90;;;;;;5032138;28;21022;-50
2022/09/17 06:08:29;;;;;;;11.93;4.80;;;14.50;99.90;;;;;;5033149;28;20446;-49
2022/09/17 06:10:57;;;;;;;14.47;5.40;;;14.70;99.90;;;;;;5033516;28;20474;-49
2022/09/17 06:13:24;;;;;;;11.13;4.23;;;15.00;99.90;;;;;;5033562;28;20435;-49
2022/09/17 06:15:51;;;;;;;15.93;3.80;;;15.10;99.90;;;;;;5033318;28;20895;-50
2022/09/17 06:18:18;;;;;;;11.20;4.07;;;14.80;99.90;;;;;;5033466;28;20830;-49
2022/09/17 06:20:53;;;;;;;11.20;3.67;;;15.00;99.90;;;;;;5033102;28;20486;-50
2022/09/17 06:23:20;;;;;;;11.83;5.00;;;14.90;99.90;;;;;;5033356;28;20946;-49
2022/09/17 06:25:51;;;;;;;14.43;4.20;;;14.80;99.90;;;;;;5033029;28;20459;-49
2022/09/17 06:28:19;;;;;;;8.17;3.93;;;14.90;99.90;;;;;;5033071;28;20449;-50
2022/09/17 06:30:46;;;;;;;9.97;4.30;;;14.80;99.90;;;;;;5032655;28;20899;-51
2022/09/17 06:33:13;;;;;;;14.67;5.00;;;14.80;99.90;;;;;;5033178;28;20974;-49
2022/09/17 06:35:39;;;;;;;17.30;6.07;;;15.20;99.90;;;;;;5032414;28;20975;-49
2022/09/17 06:38:06;;;;;;;32.63;5.80;;;14.70;99.90;;;;;;5032871;28;20437;-50
2022/09/17 06:40:33;;;;;;;15.57;5.40;;;14.70;99.90;;;;;;5032641;28;20472;-50
2022/09/17 06:43:00;;;;;;;18.57;5.50;;;14.90;99.90;;;;;;5031358;28;20417;-49
2022/09/17 06:45:28;;;;;;;17.40;5.63;;;14.90;99.90;;;;;;5032577;28;20458;-50
2022/09/17 06:47:55;;;;;;;14.03;4.57;;;14.70;99.90;;;;;;5032088;28;20434;-50
2022/09/17 06:50:22;;;;;;;18.00;5.10;;;15.30;99.90;;;;;;5032322;28;20439;-52
2022/09/17 06:52:49;;;;;;;14.27;5.50;;;15.20;99.90;;;;;;5032512;28;20452;-49
2022/09/17 06:55:16;;;;;;;13.03;4.77;;;15.50;99.90;;;;;;5031041;28;20856;-50
2022/09/17 06:57:43;;;;;;;18.20;4.30;;;15.10;99.90;;;;;;5032731;28;20438;-48
2022/09/17 07:00:12;;;;;;;16.70;4.87;;;15.30;99.90;;;;;;5032755;28;20924;-49
2022/09/17 07:02:40;;;;;;;13.33;5.50;;;15.20;99.90;;;;;;5032585;28;20489;-49
2022/09/17 07:05:07;;;;;;;10.13;4.70;;;15.20;99.90;;;;;;5032559;28;20456;-49
2022/09/17 07:07:34;;;;;;;21.17;4.60;;;15.50;99.90;;;;;;5030810;28;20815;-49
2022/09/17 07:10:01;;;;;;;14.57;4.70;;;15.00;99.90;;;;;;5030395;28;20962;-49
2022/09/17 07:12:27;;;;;;;12.40;4.30;;;15.20;99.90;;;;;;5032197;28;20435;-49
2022/09/17 07:14:54;;;;;;;12.00;4.63;;;15.10;99.90;;;;;;5031975;28;20438;-48
2022/09/17 07:17:22;;;;;;;11.47;4.33;;;15.60;99.90;;;;;;5031936;28;20516;-49
2022/09/17 07:19:50;;;;;;;13.27;3.70;;;15.10;99.90;;;;;;5031765;28;20536;-48
2022/09/17 07:22:17;;;;;;;17.90;4.47;;;14.90;99.90;;;;;;5031907;28;20491;-48
2022/09/17 07:24:43;;;;;;;21.20;4.80;;;15.10;99.90;;;;;;5031834;28;20485;-48
2022/09/17 07:27:10;;;;;;;9.83;4.20;;;15.00;99.90;;;;;;5031768;28;20443;-49
2022/09/17 07:29:37;;;;;;;13.23;4.17;;;14.80;99.90;;;;;;5031226;28;20439;-51
2022/09/17 07:32:03;;;;;;;11.53;3.60;;;14.60;99.90;;;;;;5031788;28;20436;-50
2022/09/17 07:34:30;;;;;;;15.47;4.40;;;15.20;99.90;;;;;;5031582;28;20433;-49
2022/09/17 07:36:58;;;;;;;15.07;4.03;;;15.20;99.90;;;;;;5031780;28;20538;-49
2022/09/17 07:39:24;;;;;;;17.07;3.67;;;15.30;99.90;;;;;;5031510;28;20428;-49
2022/09/17 07:41:51;;;;;;;10.00;3.40;;;15.40;99.90;;;;;;5031546;28;20474;-51
2022/09/17 07:44:17;;;;;;;15.33;4.23;;;15.60;99.90;;;;;;5031285;28;20782;-50
2022/09/17 07:46:44;;;;;;;12.63;3.77;;;15.60;99.90;;;;;;5031452;28;20501;-48
2022/09/17 07:49:11;;;;;;;15.37;3.50;;;15.80;99.90;;;;;;5031195;28;20440;-49
2022/09/17 07:51:37;;;;;;;10.87;3.70;;;15.50;99.90;;;;;;5031546;28;20955;-50
2022/09/17 07:54:06;;;;;;;14.90;4.30;;;15.50;99.90;;;;;;5031510;28;20447;-49
2022/09/17 07:56:33;;;;;;;11.53;3.90;;;15.80;99.90;;;;;;5031545;28;20459;-50
2022/09/17 07:59:01;;;;;;;9.67;3.60;;;15.80;99.90;;;;;;5030794;28;20539;-49
2022/09/17 08:01:28;;;;;;;13.37;3.13;;;15.60;99.90;;;;;;5031261;28;20852;-49
2022/09/17 08:03:55;;;;;;;21.00;3.50;;;15.70;99.90;;;;;;5031628;28;20500;-49
2022/09/17 08:06:24;;;;;;;18.00;3.57;;;16.10;99.90;;;;;;5031532;28;21030;-50
2022/09/17 08:08:51;;;;;;;15.10;3.80;;;15.60;99.90;;;;;;5031208;28;20778;-48
2022/09/17 08:11:21;;;;;;;13.87;3.20;;;15.90;99.90;;;;;;5031342;28;20451;-51
2022/09/17 08:13:48;;;;;;;14.00;3.27;;;15.50;99.90;;;;;;5031053;28;20427;-49
2022/09/17 08:16:15;;;;;;;16.60;3.93;;;15.80;99.90;;;;;;5031072;28;20525;-49
2022/09/17 08:18:42;;;;;;;15.50;4.23;;;16.20;99.90;;;;;;5030966;28;20941;-49
2022/09/17 08:21:11;;;;;;;9.30;3.50;;;16.00;99.90;;;;;;5031074;28;20833;-51
2022/09/17 08:23:40;;;;;;;13.47;4.37;;;16.10;99.90;;;;;;5031221;28;20866;-50
2022/09/17 08:26:15;;;;;;;17.60;4.30;;;16.50;99.90;;;;;;5030891;28;20945;-49
2022/09/17 08:28:46;;;;;;;12.93;3.37;;;16.30;99.90;;;;;;5030833;28;20525;-49
2022/09/17 08:31:14;;;;;;;12.23;2.90;;;16.30;99.90;;;;;;5031136;28;20427;-49
2022/09/17 08:33:41;;;;;;;11.20;3.33;;;16.40;99.90;;;;;;5030782;28;20439;-51
2022/09/17 08:36:11;;;;;;;12.43;3.20;;;16.30;99.90;;;;;;5030275;28;20471;-49
2022/09/17 08:38:38;;;;;;;11.10;2.73;;;16.50;99.90;;;;;;5030392;28;20924;-49
2022/09/17 08:41:18;;;;;;;12.93;3.77;;;16.50;99.90;;;;;;5030960;28;20571;-49
2022/09/17 08:43:52;;;;;;;5.70;2.40;;;16.50;99.90;;;;;;5031273;28;20443;-50
2022/09/17 08:46:19;;;;;;;13.77;3.23;;;16.50;99.90;;;;;;5031235;28;20455;-49
2022/09/17 08:48:52;;;;;;;11.00;4.07;;;16.30;99.90;;;;;;5030475;28;20424;-49
2022/09/17 08:51:28;;;;;;;10.30;2.83;;;16.40;99.90;;;;;;5030725;28;20439;-51
2022/09/17 08:54:05;;;;;;;9.60;3.73;;;16.80;99.90;;;;;;5030575;28;20435;-49
2022/09/17 08:56:34;;;;;;;10.80;3.13;;;16.60;99.90;;;;;;5030317;28;20972;-50
2022/09/17 08:59:13;;;;;;;11.60;2.87;;;16.50;99.90;;;;;;5030355;28;20437;-49
2022/09/17 09:01:45;;;;;;;10.77;3.47;;;16.40;99.90;;;;;;5030432;28;20485;-49
2022/09/17 09:04:44;;;;;;;10.60;3.33;;;16.40;99.90;;;;;;5030724;28;20447;-50
2022/09/17 09:07:16;;;;;;;14.73;4.97;;;16.30;99.90;;;;;;5030676;28;20440;-49
2022/09/17 09:09:48;;;;;;;15.60;3.40;;;16.30;99.90;;;;;;5031841;28;20459;-49
2022/09/17 09:12:23;;;;;;;11.97;3.87;;;16.30;99.90;;;;;;5032565;28;20546;-50
2022/09/17 09:14:57;;;;;;;11.30;2.80;;;16.10;99.90;;;;;;5034419;28;20490;-50
2022/09/17 09:17:28;;;;;;;8.23;2.77;;;16.30;99.90;;;;;;5034441;28;20440;-50
2022/09/17 09:19:55;;;;;;;9.90;3.30;;;16.40;99.90;;;;;;5033853;28;20482;-50
2022/09/17 09:22:45;;;;;;;11.33;2.87;;;16.40;99.90;;;;;;5033640;28;20846;-51
2022/09/17 09:25:21;;;;;;;9.63;3.50;;;16.60;99.90;;;;;;5034212;28;20448;-51
2022/09/17 09:28:10;;;;;;;8.27;2.50;;;16.70;99.90;;;;;;5033827;28;20471;-49
2022/09/17 09:30:51;;;;;;;10.93;3.77;;;16.80;99.90;;;;;;5033959;28;20876;-50
2022/09/17 09:33:25;;;;;;;14.10;2.97;;;16.90;99.90;;;;;;5033696;28;20463;-49
2022/09/17 09:35:51;;;;;;;10.17;2.60;;;16.70;99.90;;;;;;5033619;28;20963;-48
2022/09/17 09:38:29;;;;;;;12.33;4.07;;;17.00;99.90;;;;;;5033242;28;20451;-50
2022/09/17 09:41:02;;;;;;;10.17;3.10;;;17.00;99.90;;;;;;5033500;28;20446;-49
2022/09/17 09:43:36;;;;;;;10.47;2.97;;;17.20;99.90;;;;;;5033841;28;20436;-49
2022/09/17 09:46:30;;;;;;;15.67;3.80;;;17.20;99.90;;;;;;5033405;28;20456;-50
2022/09/17 09:49:08;;;;;;;11.10;3.47;;;17.00;99.60;;;;;;5033099;28;20432;-50
2022/09/17 09:51:45;;;;;;;7.27;3.30;;;17.00;99.50;;;;;;5033437;28;20440;-50
2022/09/17 09:54:23;;;;;;;10.50;3.27;;;17.10;99.40;;;;;;5033718;28;20434;-49
2022/09/17 09:56:57;;;;;;;10.00;3.00;;;16.90;99.40;;;;;;5033299;28;20503;-49
2022/09/17 09:59:24;;;;;;;10.17;3.40;;;17.00;99.60;;;;;;5032968;28;20445;-49
2022/09/17 10:01:52;;;;;;;7.87;2.93;;;17.30;99.80;;;;;;5033069;28;21042;-50
2022/09/17 10:04:21;;;;;;;11.40;4.10;;;17.40;99.80;;;;;;5033185;28;20464;-50
2022/09/17 10:06:51;;;;;;;8.47;2.97;;;17.20;99.90;;;;;;5031758;28;20562;-50
2022/09/17 10:09:20;;;;;;;10.57;4.00;;;17.20;99.90;;;;;;5032856;28;20441;-49
2022/09/17 10:12:03;;;;;;;9.17;3.17;;;17.40;99.90;;;;;;5032783;28;20443;-50
2022/09/17 10:14:33;;;;;;;9.63;3.13;;;17.40;99.90;;;;;;5033108;28;20451;-50
2022/09/17 10:17:20;;;;;;;8.60;3.00;;;17.40;99.80;;;;;;5032917;28;20441;-50
2022/09/17 10:20:07;;;;;;;11.90;3.20;;;17.60;99.70;;;;;;5031054;28;20464;-50
2022/09/17 10:22:36;;;;;;;9.90;3.87;;;17.60;99.40;;;;;;5031845;28;20478;-50
2022/09/17 10:25:05;;;;;;;14.73;3.93;;;17.70;99.20;;;;;;5032856;28;20930;-49
2022/09/17 10:27:35;;;;;;;9.13;2.50;;;17.70;99.00;;;;;;5032521;28;20437;-50
2022/09/17 10:30:13;;;;;;;9.27;2.93;;;17.70;98.80;;;;;;5032300;28;20534;-49
2022/09/17 10:32:41;;;;;;;7.93;2.70;;;17.70;98.50;;;;;;5032764;28;20579;-49
2022/09/17 10:35:26;;;;;;;7.10;3.13;;;17.80;98.50;;;;;;5032687;28;20865;-50
2022/09/17 10:37:54;;;;;;;7.80;2.80;;;17.80;97.80;;;;;;5032666;28;20461;-50
2022/09/17 10:40:30;;;;;;;9.73;2.70;;;17.70;98.30;;;;;;5032233;28;20439;-51
2022/09/17 10:43:18;;;;;;;9.67;2.93;;;17.80;99.70;;;;;;5032280;28;21056;-50
2022/09/17 10:45:55;;;;;;;6.27;2.93;;;17.30;99.90;;;;;;5032752;28;20970;-50
2022/09/17 10:48:23;;;;;;;7.97;2.50;;;17.20;99.90;;;;;;5032017;28;20495;-51
2022/09/17 10:50:52;;;;;;;15.63;4.00;;;17.10;99.90;;;;;;5031850;28;20436;-50
2022/09/17 10:53:20;;;;;;;10.90;3.47;;;16.80;99.90;;;;;;5031823;28;20431;-50
2022/09/17 10:55:53;;;;;;;9.03;3.10;;;17.10;99.90;;;;;;5032203;28;21075;-50
2022/09/17 10:58:35;;;;;;;10.73;2.73;;;17.50;99.90;;;;;;5032001;28;20436;-50
2022/09/17 11:01:11;;;;;;;7.53;2.60;;;17.30;99.90;;;;;;5031721;28;20428;-50
2022/09/17 11:03:51;;;;;;;8.67;3.50;;;17.40;99.90;;;;;;5032090;28;20511;-50
2022/09/17 11:06:31;;;;;;;12.37;4.30;;;17.40;99.90;;;;;;5031828;28;20451;-50
2022/09/17 11:09:06;;;;;;;11.03;3.17;;;17.70;99.90;;;;;;5031323;28;20436;-50
2022/09/17 11:11:45;;;;;;;12.93;3.10;;;17.80;99.90;;;;;;5032137;28;20439;-51
2022/09/17 11:14:30;;;;;;;6.20;2.07;;;17.60;99.90;;;;;;5031368;28;20469;-49
2022/09/17 11:17:06;;;;;;;12.73;2.47;;;17.90;99.90;;;;;;5031599;28;20507;-51
2022/09/17 11:19:45;;;;;;;8.30;3.00;;;18.00;99.40;;;;;;5031611;28;20448;-50
2022/09/17 11:22:22;;;;;;;5.93;2.90;;;17.80;97.80;;;;;;5031462;28;20530;-50
2022/09/17 11:25:03;;;;;;;6.20;2.20;;;18.00;97.60;;;;;;5031687;28;20552;-50
2022/09/17 11:28:08;;;;;;;8.77;3.17;;;17.80;97.20;;;;;;5031634;28;20521;-50
2022/09/17 11:30:48;;;;;;;9.07;2.70;;;17.90;96.40;;;;;;5009954;28;20516;-50
2022/09/17 11:33:44;;;;;;;4.23;1.60;;;18.10;95.90;;;;;;5030677;28;20515;-52
2022/09/17 11:36:15;;;;;;;6.17;2.23;;;18.00;95.00;;;;;;5016755;28;20489;-50
2022/09/17 11:38:47;;;;;;;7.67;2.50;;;18.00;95.40;;;;;;5031134;28;20791;-50
2022/09/17 11:41:19;;;;;;;5.07;2.23;;;17.90;95.00;;;;;;5031590;28;20437;-50
2022/09/17 11:43:50;;;;;;;8.13;2.00;;;17.80;94.80;;;;;;5031107;28;20484;-52
2022/09/17 11:46:21;;;;;;;9.03;2.73;;;17.60;95.10;;;;;;5031198;28;20452;-52
2022/09/17 11:48:55;;;;;;;6.00;2.03;;;17.60;95.70;;;;;;5030748;28;20436;-51
2022/09/17 11:51:30;;;;;;;9.07;3.30;;;17.60;97.20;;;;;;5030856;28;20469;-50
2022/09/17 11:54:03;;;;;;;6.03;2.33;;;17.60;97.40;;;;;;5030819;28;20490;-50
2022/09/17 11:56:36;;;;;;;8.33;2.00;;;17.50;97.30;;;;;;5030841;28;21002;-50
2022/09/17 11:59:05;;;;;;;7.53;2.90;;;17.70;97.60;;;;;;5030437;28;20469;-50
2022/09/17 12:01:38;;;;;;;5.70;2.63;;;17.70;97.20;;;;;;5030597;28;20440;-49
2022/09/17 12:04:27;;;;;;;9.30;3.03;;;17.90;97.40;;;;;;5030612;28;20534;-51
2022/09/17 12:07:02;;;;;;;6.00;2.10;;;17.80;97.30;;;;;;5030572;28;20448;-50
2022/09/17 12:09:32;;;;;;;11.07;3.33;;;18.30;97.50;;;;;;5030307;28;20567;-50
2022/09/17 12:12:03;;;;;;;5.97;2.10;;;17.80;96.90;;;;;;5030952;28;20435;-50
2022/09/17 12:14:42;;;;;;;6.13;2.20;;;17.80;96.50;;;;;;5030101;28;20445;-51
2022/09/17 12:17:15;;;;;;;7.63;2.10;;;17.80;96.40;;;;;;5030180;28;20437;-50
2022/09/17 12:19:46;;;;;;;7.67;2.00;;;17.70;95.60;;;;;;5030494;28;20441;-52
2022/09/17 12:22:19;;;;;;;3.87;1.50;;;17.80;94.80;;;;;;5030220;28;20437;-49
2022/09/17 12:24:45;;;;;;;5.70;1.47;;;17.90;94.00;;;;;;5030616;28;20452;-50
2022/09/17 12:27:21;;;;;;;5.43;1.63;;;17.70;93.50;;;;;;5030688;28;20963;-52
2022/09/17 12:30:09;;;;;;;6.70;1.57;;;18.20;93.70;;;;;;5030060;28;20432;-50
2022/09/17 12:33:01;;;;;;;4.57;1.67;;;18.00;93.30;;;;;;5028984;28;20442;-52
2022/09/17 12:35:50;;;;;;;6.07;2.03;;;18.20;93.20;;;;;;5030287;28;20482;-49
2022/09/17 12:38:49;;;;;;;4.90;1.50;;;18.30;92.50;;;;;;5007895;28;20458;-50
2022/09/17 12:41:20;;;;;;;7.00;1.87;;;18.40;92.30;;;;;;5020086;28;20459;-49
2022/09/17 12:44:15;;;;;;;4.73;1.90;;;18.40;92.20;;;;;;5030319;28;20481;-51
2022/09/17 12:46:55;;;;;;;5.80;1.77;;;18.30;92.10;;;;;;5034746;28;20450;-50
2022/09/17 12:49:49;;;;;;;5.30;1.40;;;18.70;92.40;;;;;;5033908;28;20434;-50
2022/09/17 12:52:26;;;;;;;5.40;2.17;;;18.80;92.30;;;;;;5033981;28;20450;-50
2022/09/17 12:55:23;;;;;;;4.93;2.20;;;18.50;92.20;;;;;;5033850;28;20461;-49
2022/09/17 12:57:58;;;;;;;10.47;2.83;;;18.40;92.10;;;;;;5032606;28;20473;-49
2022/09/17 13:00:25;;;;;;;10.03;2.93;;;18.50;93.20;;;;;;5033210;28;20528;-50
2022/09/17 13:03:00;;;;;;;7.30;2.10;;;18.30;93.50;;;;;;5033264;28;20926;-50